createdAt,value
2023-02-12T00:01:26.347Z,113.10
2023-02-12T00:03:55.261Z,104.30
2023-02-12T00:06:24.249Z,120.00
2023-02-12T00:08:54.231Z,121.10
2023-02-12T00:11:25.819Z,112.40
2023-02-12T00:13:55.292Z,111.10
2023-02-12T00:16:29.028Z,117.70
2023-02-12T00:18:59.043Z,106.00
2023-02-12T00:21:29.021Z,102.70
2023-02-12T00:23:57.869Z,108.80
2023-02-12T00:26:26.093Z,111.40
2023-02-12T00:28:55.093Z,106.70
2023-02-12T00:31:26.980Z,106.50
2023-02-12T00:33:59.441Z,104.70
2023-02-12T00:36:29.544Z,103.40
2023-02-12T00:38:58.305Z,105.20
2023-02-12T00:41:27.364Z,95.10
2023-02-12T00:43:55.973Z,102.10
2023-02-12T00:46:24.203Z,103.80
2023-02-12T00:48:52.547Z,107.00
2023-02-12T00:51:21.973Z,111.60
2023-02-12T00:53:50.085Z,105.70
2023-02-12T00:56:18.143Z,105.10
2023-02-12T00:58:48.958Z,107.30
2023-02-12T01:01:18.012Z,104.80
2023-02-12T01:03:46.098Z,105.60
2023-02-12T01:06:14.222Z,114.20
2023-02-12T01:08:42.252Z,109.70
2023-02-12T01:11:13.110Z,104.90
2023-02-12T01:13:41.410Z,107.60
2023-02-12T01:16:16.297Z,111.60
2023-02-12T01:18:45.884Z,103.50
2023-02-12T01:21:19.485Z,109.70
2023-02-12T01:23:48.605Z,115.50
2023-02-12T01:26:18.127Z,122.30
2023-02-12T01:28:51.208Z,122.20
2023-02-12T01:31:23.160Z,122.20
2023-02-12T01:33:54.410Z,128.60
2023-02-12T01:36:26.332Z,120.90
2023-02-12T01:38:56.126Z,125.50
2023-02-12T01:41:29.675Z,127.80
2023-02-12T01:44:09.944Z,127.20
2023-02-12T01:46:38.678Z,121.80
2023-02-12T01:49:12.681Z,108.20
2023-02-12T01:51:43.510Z,103.20
2023-02-12T01:54:15.203Z,94.80
2023-02-12T01:56:43.820Z,97.00
2023-02-12T01:59:13.110Z,98.80
2023-02-12T02:01:41.357Z,97.70
2023-02-12T02:04:14.138Z,97.70
2023-02-12T02:07:05.543Z,102.70
2023-02-12T02:09:36.681Z,105.40
2023-02-12T02:12:24.739Z,103.30
2023-02-12T02:14:57.104Z,97.70
2023-02-12T02:17:37.424Z,103.80
2023-02-12T02:20:20.584Z,105.10
2023-02-12T02:23:10.078Z,103.80
2023-02-12T02:26:05.887Z,108.80
2023-02-12T02:28:44.643Z,104.60
2023-02-12T02:31:17.912Z,95.30
2023-02-12T02:33:59.657Z,97.70
2023-02-12T02:36:32.445Z,91.00
2023-02-12T02:39:06.624Z,92.20
2023-02-12T02:41:59.601Z,97.60
2023-02-12T02:44:37.382Z,90.80
2023-02-12T02:47:10.214Z,89.20
2023-02-12T02:49:56.359Z,97.00
2023-02-12T02:52:37.453Z,91.90
2023-02-12T02:55:12.460Z,101.50
2023-02-12T02:58:12.210Z,94.70
2023-02-12T03:04:46.563Z,89.20
2023-02-12T03:09:59.358Z,83.80
2023-02-12T03:12:44.982Z,102.30
2023-02-12T03:15:27.106Z,90.30
2023-02-12T03:17:58.823Z,99.10
2023-02-12T03:20:33.934Z,94.00
2023-02-12T03:23:14.532Z,98.10
2023-02-12T03:25:47.300Z,96.80
2023-02-12T03:28:20.820Z,98.60
2023-02-12T03:30:59.958Z,107.40
2023-02-12T03:33:34.034Z,107.90
2023-02-12T03:36:10.989Z,96.20
2023-02-12T03:38:46.255Z,96.40
2023-02-12T03:41:31.508Z,96.00
2023-02-12T03:44:21.318Z,110.90
2023-02-12T03:47:09.472Z,96.20
2023-02-12T03:50:00.858Z,106.30
2023-02-12T03:52:30.491Z,102.50
2023-02-12T03:54:59.074Z,91.20
2023-02-12T03:57:34.235Z,96.70
2023-02-12T04:00:08.929Z,88.40
2023-02-12T04:02:43.495Z,88.80
2023-02-12T04:05:24.141Z,98.20
2023-02-12T04:07:54.146Z,97.90
2023-02-12T04:10:45.699Z,94.00
2023-02-12T04:13:26.448Z,91.10
2023-02-12T04:16:12.505Z,90.80
2023-02-12T04:18:52.115Z,89.70
2023-02-12T04:21:48.033Z,101.20
2023-02-12T04:24:24.562Z,101.50
2023-02-12T04:29:56.206Z,92.30
2023-02-12T04:32:38.300Z,97.30
2023-02-12T04:35:27.995Z,103.90
2023-02-12T04:38:18.647Z,105.70
2023-02-12T04:40:48.188Z,122.30
2023-02-12T04:43:30.136Z,125.40
2023-02-12T04:45:58.420Z,114.10
2023-02-12T04:48:26.752Z,127.60
2023-02-12T04:50:54.708Z,118.00
2023-02-12T04:53:22.791Z,123.10
2023-02-12T04:55:50.761Z,118.20
2023-02-12T04:58:18.858Z,111.20
2023-02-12T05:00:46.894Z,107.80
2023-02-12T05:03:14.824Z,104.90
2023-02-12T05:05:42.839Z,115.50
2023-02-12T05:08:10.877Z,111.00
2023-02-12T05:10:38.921Z,100.70
2023-02-12T05:13:08.020Z,102.60
2023-02-12T05:15:38.474Z,108.00
2023-02-12T05:18:06.578Z,106.00
2023-02-12T05:20:34.438Z,99.10
2023-02-12T05:23:02.472Z,98.00
2023-02-12T05:25:32.707Z,110.20
2023-02-12T05:28:00.706Z,103.90
2023-02-12T05:30:28.688Z,107.60
2023-02-12T05:33:02.621Z,107.40
2023-02-12T05:35:30.526Z,108.40
2023-02-12T05:37:58.496Z,111.40
2023-02-12T05:40:26.637Z,102.30
2023-02-12T05:42:54.645Z,108.90
2023-02-12T05:45:27.874Z,107.00
2023-02-12T05:47:56.559Z,121.70
2023-02-12T05:50:24.882Z,106.10
2023-02-12T05:53:01.447Z,113.10
2023-02-12T05:55:29.411Z,114.50
2023-02-12T05:57:57.336Z,112.60
2023-02-12T06:00:25.488Z,118.90
2023-02-12T06:02:53.654Z,111.30
2023-02-12T06:05:21.678Z,117.80
2023-02-12T06:07:49.693Z,114.50
2023-02-12T06:10:17.853Z,113.20
2023-02-12T06:12:46.293Z,120.00
2023-02-12T06:15:14.267Z,123.20
2023-02-12T06:17:42.167Z,109.80
2023-02-12T06:20:10.310Z,110.90
2023-02-12T06:22:38.486Z,111.70
2023-02-12T06:25:06.963Z,121.40
2023-02-12T06:27:34.935Z,113.20
2023-02-12T06:30:03.211Z,121.90
2023-02-12T06:32:31.259Z,116.00
2023-02-12T06:34:59.282Z,124.00
2023-02-12T06:37:27.340Z,115.00
2023-02-12T06:39:55.659Z,117.50
2023-02-12T06:42:23.532Z,115.50
2023-02-12T06:44:53.041Z,127.00
2023-02-12T06:47:21.686Z,130.60
2023-02-12T06:49:49.711Z,112.90
2023-02-12T06:52:17.703Z,115.20
2023-02-12T06:54:45.563Z,114.10
2023-02-12T06:57:13.623Z,117.90
2023-02-12T06:59:41.566Z,117.10
2023-02-12T07:02:11.458Z,124.20
2023-02-12T07:04:39.502Z,123.90
2023-02-12T07:07:07.644Z,112.80
2023-02-12T07:09:35.815Z,117.70
2023-02-12T07:12:04.541Z,123.70
2023-02-12T07:14:34.205Z,112.60
2023-02-12T07:17:04.021Z,116.70
2023-02-12T07:19:32.473Z,119.90
2023-02-12T07:22:00.833Z,116.00
2023-02-12T07:24:28.843Z,109.10
2023-02-12T07:26:56.880Z,107.00
2023-02-12T07:29:25.166Z,111.60
2023-02-12T07:31:53.415Z,113.00
2023-02-12T07:34:21.404Z,120.30
2023-02-12T07:36:49.475Z,120.10
2023-02-12T07:39:17.461Z,117.10
2023-02-12T07:41:45.511Z,110.50
2023-02-12T07:44:13.791Z,115.10
2023-02-12T07:46:49.427Z,133.70
2023-02-12T07:49:20.304Z,116.60
2023-02-12T07:51:51.136Z,117.50
2023-02-12T07:54:19.153Z,126.50
2023-02-12T07:56:47.463Z,117.90
2023-02-12T07:59:18.399Z,119.30
2023-02-12T08:01:51.683Z,111.90
2023-02-12T08:04:23.051Z,113.10
2023-02-12T08:06:54.116Z,114.60
2023-02-12T08:09:24.783Z,108.20
2023-02-12T08:11:53.383Z,109.80
2023-02-12T08:14:22.270Z,95.90
2023-02-12T08:16:51.034Z,94.00
2023-02-12T08:19:24.756Z,102.80
2023-02-12T08:21:54.813Z,103.40
2023-02-12T08:24:23.551Z,105.80
2023-02-12T08:26:52.008Z,94.50
2023-02-12T08:29:22.843Z,99.70
2023-02-12T08:31:56.378Z,100.60
2023-02-12T08:34:31.782Z,95.30
2023-02-12T08:37:00.387Z,90.90
2023-02-12T08:39:30.303Z,90.00
2023-02-12T08:41:59.976Z,71.50
2023-02-12T08:44:28.538Z,77.10
2023-02-12T08:46:56.713Z,71.50
2023-02-12T08:49:29.481Z,76.10
2023-02-12T08:51:59.878Z,77.30
2023-02-12T08:54:29.791Z,71.10
2023-02-12T08:57:00.849Z,70.80
2023-02-12T08:59:29.697Z,76.80
2023-02-12T09:01:57.623Z,79.30
2023-02-12T09:04:28.267Z,84.50
2023-02-12T09:06:56.868Z,80.90
2023-02-12T09:09:24.841Z,99.20
2023-02-12T09:11:53.012Z,102.20
2023-02-12T09:14:24.270Z,91.10
2023-02-12T09:16:57.283Z,75.00
2023-02-12T09:19:25.633Z,82.40
2023-02-12T09:21:56.652Z,77.90
2023-02-12T09:24:27.965Z,73.70
2023-02-12T09:26:56.708Z,70.10
2023-02-12T09:29:24.720Z,62.70
2023-02-12T09:31:52.993Z,67.00
2023-02-12T09:34:21.358Z,61.40
2023-02-12T09:36:49.653Z,69.00
2023-02-12T09:39:17.677Z,66.80
2023-02-12T09:41:45.670Z,64.40
2023-02-12T09:44:35.025Z,75.40
2023-02-12T09:47:17.420Z,73.70
2023-02-12T09:50:14.927Z,77.30
2023-02-12T09:52:43.231Z,80.80
2023-02-12T09:55:19.586Z,81.00
2023-02-12T09:57:47.816Z,87.90
2023-02-12T10:00:28.065Z,80.20
2023-02-12T10:02:56.261Z,81.60
2023-02-12T10:05:29.352Z,85.90
2023-02-12T10:08:22.156Z,86.40
2023-02-12T10:10:52.190Z,85.30
2023-02-12T10:13:38.693Z,87.70
2023-02-12T10:16:26.948Z,84.40
2023-02-12T10:19:06.843Z,78.90
2023-02-12T10:21:59.661Z,81.40
2023-02-12T10:24:57.820Z,77.60
2023-02-12T10:27:43.596Z,84.10
2023-02-12T10:30:31.380Z,80.00
2023-02-12T10:33:06.964Z,81.90
2023-02-12T10:35:35.647Z,80.80
2023-02-12T10:38:29.591Z,77.60
2023-02-12T10:41:01.779Z,81.00
2023-02-12T10:43:30.664Z,90.70
2023-02-12T10:45:58.899Z,85.60
2023-02-12T10:48:38.886Z,82.40
2023-02-12T10:51:09.657Z,83.20
2023-02-12T10:53:43.537Z,81.70
2023-02-12T10:56:26.071Z,86.60
2023-02-12T10:58:59.301Z,85.20
2023-02-12T11:01:38.452Z,87.90
2023-02-12T11:04:27.936Z,78.10
2023-02-12T11:07:07.516Z,79.30
2023-02-12T11:09:46.293Z,76.40
2023-02-12T11:12:40.982Z,76.30
2023-02-12T11:15:26.532Z,80.70
2023-02-12T11:18:05.127Z,84.90
2023-02-12T11:20:42.286Z,87.10
2023-02-12T11:23:32.652Z,76.00
2023-02-12T11:26:07.337Z,77.60
2023-02-12T11:28:37.125Z,71.80
2023-02-12T11:31:33.310Z,65.20
2023-02-12T11:34:04.527Z,65.70
2023-02-12T11:36:46.120Z,65.30
2023-02-12T11:39:39.073Z,62.30
2023-02-12T11:42:30.944Z,61.40
2023-02-12T11:45:00.262Z,59.80
2023-02-12T11:47:35.372Z,58.30
2023-02-12T11:50:09.233Z,61.20
2023-02-12T11:52:40.848Z,59.80
2023-02-12T11:55:22.558Z,64.30
2023-02-12T11:58:03.189Z,60.70
2023-02-12T12:00:45.620Z,61.80
2023-02-12T12:03:21.370Z,61.10
2023-02-12T12:05:52.820Z,62.00
2023-02-12T12:08:27.897Z,60.30
2023-02-12T12:11:18.962Z,60.70
2023-02-12T12:13:57.659Z,61.00
2023-02-12T12:16:57.028Z,63.00
2023-02-12T12:19:51.654Z,59.50
2023-02-12T12:22:41.608Z,59.60
2023-02-12T12:25:41.482Z,63.20
2023-02-12T12:28:18.880Z,60.70
2023-02-12T12:31:08.865Z,57.00
2023-02-12T12:33:51.679Z,53.50
2023-02-12T12:36:51.875Z,59.30
2023-02-12T12:39:45.796Z,59.70
2023-02-12T12:42:31.951Z,59.40
2023-02-12T12:45:17.429Z,60.50
2023-02-12T12:48:22.654Z,58.30
2023-02-12T12:51:06.007Z,55.80
2023-02-12T12:53:52.758Z,58.20
2023-02-12T12:56:27.057Z,56.10
2023-02-12T12:59:13.806Z,56.10
2023-02-12T13:04:41.819Z,55.00
2023-02-12T13:07:29.013Z,61.30
2023-02-12T13:10:08.354Z,64.70
2023-02-12T13:12:49.538Z,63.60
2023-02-12T13:15:28.447Z,59.20
2023-02-12T13:18:06.888Z,58.10
2023-02-12T13:21:03.401Z,59.90
2023-02-12T13:23:54.641Z,59.30
2023-02-12T13:26:40.826Z,58.30
2023-02-12T13:29:34.901Z,57.30
2023-02-12T13:32:22.501Z,59.40
2023-02-12T13:34:53.139Z,59.70
2023-02-12T13:37:35.443Z,61.80
2023-02-12T13:40:14.179Z,58.20
2023-02-12T13:42:43.179Z,60.10
2023-02-12T13:45:20.413Z,57.70
2023-02-12T13:48:06.415Z,59.00
2023-02-12T13:51:01.420Z,55.60
2023-02-12T13:53:48.208Z,55.50
2023-02-12T13:56:42.357Z,52.80
2023-02-12T13:59:51.068Z,53.20
2023-02-12T14:02:38.971Z,55.10
2023-02-12T14:05:36.923Z,60.10
2023-02-12T14:08:06.598Z,59.00
2023-02-12T14:10:41.257Z,56.00
2023-02-12T14:13:34.210Z,61.50
2023-02-12T14:16:39.556Z,55.10
2023-02-12T14:19:41.694Z,55.80
2023-02-12T14:22:29.822Z,57.00
2023-02-12T14:24:59.295Z,52.70
2023-02-12T14:27:33.297Z,58.10
2023-02-12T14:30:04.344Z,52.20
2023-02-12T14:32:44.909Z,60.80
2023-02-12T14:35:32.137Z,52.20
2023-02-12T14:40:47.020Z,55.80
2023-02-12T14:43:57.146Z,50.60
2023-02-12T14:46:25.211Z,49.80
2023-02-12T14:49:05.980Z,48.50
2023-02-12T14:51:53.503Z,52.60
2023-02-12T14:54:30.545Z,53.70
2023-02-12T14:57:02.959Z,54.20
2023-02-12T14:59:39.507Z,52.50
2023-02-12T15:04:41.372Z,76.00
2023-02-12T15:07:17.215Z,62.10
2023-02-12T15:09:52.374Z,65.00
2023-02-12T15:12:38.346Z,51.50
2023-02-12T15:15:34.790Z,49.90
2023-02-12T15:18:20.634Z,52.90
2023-02-12T15:20:55.237Z,53.60
2023-02-12T15:24:08.023Z,52.20
2023-02-12T15:26:47.386Z,55.00
2023-02-12T15:29:55.849Z,54.30
2023-02-12T15:32:27.113Z,56.50
2023-02-12T15:34:56.186Z,56.40
2023-02-12T15:37:30.784Z,64.90
2023-02-12T15:40:01.639Z,58.30
2023-02-12T15:42:33.831Z,60.80
2023-02-12T15:45:25.937Z,56.70
2023-02-12T15:48:00.969Z,65.20
2023-02-12T15:50:31.277Z,66.90
2023-02-12T15:52:59.669Z,71.90
2023-02-12T15:55:33.304Z,68.00
2023-02-12T15:58:03.382Z,72.20
2023-02-12T16:00:43.318Z,79.00
2023-02-12T16:03:28.969Z,74.60
2023-02-12T16:06:03.972Z,72.20
2023-02-12T16:08:34.139Z,72.10
2023-02-12T16:11:13.718Z,72.60
2023-02-12T16:13:51.826Z,75.90
2023-02-12T16:16:39.935Z,74.50
2023-02-12T16:19:22.531Z,73.40
2023-02-12T16:21:56.565Z,71.10
2023-02-12T16:24:33.561Z,65.00
2023-02-12T16:27:09.588Z,69.30
2023-02-12T16:29:45.945Z,63.40
2023-02-12T16:32:36.256Z,66.90
2023-02-12T16:35:33.866Z,69.30
2023-02-12T16:40:35.282Z,67.00
2023-02-12T16:43:23.154Z,75.00
2023-02-12T16:45:59.804Z,68.80
2023-02-12T16:48:28.169Z,63.90
2023-02-12T16:50:59.714Z,76.80
2023-02-12T16:53:30.700Z,69.20
2023-02-12T16:56:00.599Z,67.00
2023-02-12T16:58:28.732Z,72.80
2023-02-12T17:00:58.927Z,71.80
2023-02-12T17:03:27.112Z,70.40
2023-02-12T17:05:57.123Z,70.60
2023-02-12T17:08:25.636Z,75.60
2023-02-12T17:10:53.724Z,71.10
2023-02-12T17:13:21.848Z,73.20
2023-02-12T17:15:59.743Z,73.00
2023-02-12T17:18:28.695Z,74.30
2023-02-12T17:21:17.161Z,72.70
2023-02-12T17:23:45.228Z,77.70
2023-02-12T17:26:13.345Z,76.00
2023-02-12T17:28:41.555Z,88.70
2023-02-12T17:31:10.132Z,92.10
2023-02-12T17:33:39.513Z,96.60
2023-02-12T17:36:08.353Z,78.70
2023-02-12T17:38:36.779Z,84.10
2023-02-12T17:41:11.670Z,86.40
2023-02-12T17:43:39.748Z,80.10
2023-02-12T17:46:13.283Z,78.40
2023-02-12T17:48:41.353Z,78.10
2023-02-12T17:51:14.605Z,72.80
2023-02-12T17:53:43.036Z,73.30
2023-02-12T17:56:17.776Z,69.10
2023-02-12T17:58:46.915Z,75.00
2023-02-12T18:01:18.731Z,75.10
2023-02-12T18:03:47.650Z,72.10
2023-02-12T18:06:26.536Z,69.30
2023-02-12T18:08:56.622Z,68.80
2023-02-12T18:11:25.381Z,70.30
2023-02-12T18:13:55.856Z,77.50
2023-02-12T18:16:26.336Z,69.50
2023-02-12T18:18:55.087Z,66.80
2023-02-12T18:21:23.813Z,69.00
2023-02-12T18:23:54.075Z,70.90
2023-02-12T18:26:22.962Z,67.50
2023-02-12T18:28:51.258Z,68.20
2023-02-12T18:31:20.613Z,61.50
2023-02-12T18:33:49.074Z,75.60
2023-02-12T18:36:19.748Z,67.00
2023-02-12T18:38:49.481Z,65.00
2023-02-12T18:41:19.208Z,67.70
2023-02-12T18:43:47.970Z,66.80
2023-02-12T18:46:19.815Z,81.70
2023-02-12T18:48:49.149Z,61.90
2023-02-12T18:51:22.283Z,65.00
2023-02-12T18:54:01.945Z,66.20
2023-02-12T18:56:40.987Z,61.60
2023-02-12T18:59:11.754Z,72.00
2023-02-12T19:01:40.152Z,68.50
2023-02-12T19:04:10.936Z,59.90
2023-02-12T19:06:42.470Z,60.50
2023-02-12T19:09:12.439Z,67.20
2023-02-12T19:11:40.430Z,65.00
2023-02-12T19:14:08.342Z,63.70
2023-02-12T19:16:36.576Z,64.20
2023-02-12T19:19:04.738Z,66.70
2023-02-12T19:21:32.845Z,62.60
2023-02-12T19:24:03.236Z,73.40
2023-02-12T19:26:33.156Z,82.30
2023-02-12T19:29:02.811Z,71.70
2023-02-12T19:31:34.866Z,68.30
2023-02-12T19:34:06.878Z,72.60
2023-02-12T19:36:36.739Z,73.80
2023-02-12T19:39:06.152Z,73.30
2023-02-12T19:41:41.170Z,76.40
2023-02-12T19:44:12.664Z,70.40
2023-02-12T19:46:41.654Z,73.70
2023-02-12T19:49:15.810Z,74.70
2023-02-12T19:51:44.829Z,69.50
2023-02-12T19:54:14.927Z,78.00
2023-02-12T19:56:43.934Z,74.30
2023-02-12T19:59:17.499Z,72.00
2023-02-12T20:01:46.648Z,78.00
2023-02-12T20:04:19.410Z,83.40
2023-02-12T20:06:51.462Z,84.20
2023-02-12T20:09:21.661Z,83.00
2023-02-12T20:11:49.764Z,77.80
2023-02-12T20:14:18.155Z,84.00
2023-02-12T20:16:48.034Z,84.50
2023-02-12T20:19:23.364Z,82.40
2023-02-12T20:21:55.509Z,94.00
2023-02-12T20:24:30.114Z,95.20
2023-02-12T20:27:00.243Z,78.80
2023-02-12T20:29:29.010Z,84.30
2023-02-12T20:31:57.558Z,78.80
2023-02-12T20:34:26.528Z,74.00
2023-02-12T20:36:54.458Z,75.10
2023-02-12T20:39:23.033Z,73.80
2023-02-12T20:41:51.506Z,82.00
2023-02-12T20:44:22.116Z,79.50
2023-02-12T20:46:55.985Z,79.10
2023-02-12T20:49:26.146Z,81.40
2023-02-12T20:51:54.495Z,79.20
2023-02-12T20:54:22.945Z,78.00
2023-02-12T20:56:51.225Z,75.50
2023-02-12T20:59:20.353Z,76.10
2023-02-12T21:01:48.783Z,79.10
2023-02-12T21:04:18.577Z,75.50
2023-02-12T21:06:48.707Z,77.20
2023-02-12T21:09:17.478Z,71.10
2023-02-12T21:11:46.054Z,78.70
2023-02-12T21:14:23.878Z,77.40
2023-02-12T21:16:55.220Z,76.10
2023-02-12T21:19:23.859Z,77.60
2023-02-12T21:21:52.608Z,70.10
2023-02-12T21:24:26.046Z,72.80
2023-02-12T21:26:55.467Z,69.60
2023-02-12T21:29:23.595Z,76.80
2023-02-12T21:31:51.923Z,75.90
2023-02-12T21:34:22.584Z,79.90
2023-02-12T21:36:53.139Z,72.60
2023-02-12T21:39:27.563Z,77.40
2023-02-12T21:42:02.600Z,71.50
2023-02-12T21:44:35.474Z,77.40
2023-02-12T21:47:04.348Z,75.30
2023-02-12T21:49:32.594Z,73.20
2023-02-12T21:52:03.680Z,81.40
2023-02-12T21:54:33.145Z,89.00
2023-02-12T21:57:01.863Z,87.60
2023-02-12T21:59:40.000Z,91.80
2023-02-12T22:02:09.539Z,96.60
2023-02-12T22:04:37.551Z,89.00
2023-02-12T22:07:06.460Z,85.40
2023-02-12T22:09:35.718Z,89.40
2023-02-12T22:12:04.012Z,79.50
2023-02-12T22:14:32.073Z,74.80
2023-02-12T22:17:01.582Z,73.40
2023-02-12T22:19:29.553Z,68.50
2023-02-12T22:21:57.526Z,74.30
2023-02-12T22:24:25.450Z,69.80
2023-02-12T22:26:55.183Z,71.60
2023-02-12T22:29:23.923Z,73.10
2023-02-12T22:31:52.526Z,71.90
2023-02-12T22:34:20.686Z,72.10
2023-02-12T22:36:48.895Z,69.20
2023-02-12T22:39:17.765Z,72.20
2023-02-12T22:41:46.035Z,83.20
2023-02-12T22:44:15.331Z,79.60
2023-02-12T22:46:44.726Z,84.20
2023-02-12T22:49:13.070Z,81.70
2023-02-12T22:51:41.322Z,82.10
2023-02-12T22:54:14.949Z,76.20
2023-02-12T22:56:45.902Z,79.70
2023-02-12T22:59:14.493Z,72.80
2023-02-12T23:01:43.425Z,68.00
2023-02-12T23:04:16.955Z,71.30
2023-02-12T23:06:46.249Z,66.60
2023-02-12T23:09:16.764Z,61.40
2023-02-12T23:11:44.875Z,64.50
2023-02-12T23:14:13.868Z,59.20
2023-02-12T23:16:41.904Z,65.70
2023-02-12T23:19:11.110Z,64.90
2023-02-12T23:21:39.659Z,64.20
2023-02-12T23:24:07.910Z,63.70
2023-02-12T23:26:36.761Z,60.70
2023-02-12T23:29:04.659Z,54.00
2023-02-12T23:31:32.616Z,57.00
2023-02-12T23:34:00.665Z,52.30
2023-02-12T23:36:29.463Z,62.10
2023-02-12T23:38:59.473Z,65.00
2023-02-12T23:41:27.364Z,60.20
2023-02-12T23:43:55.348Z,61.50
2023-02-12T23:46:23.279Z,67.70
2023-02-12T23:48:51.239Z,71.90
2023-02-12T23:51:19.178Z,74.30
2023-02-12T23:53:47.042Z,70.80
2023-02-12T23:56:15.372Z,68.30
2023-02-12T23:58:43.239Z,67.90
